ESCF/LPI METAR and TAF weather

Enter ICAO airport designator
Station Type Date Time Source
ESCF METAR 2022/06/28 08:20 UTC NOAA

ESCF 280820Z 26010KT CAVOK 23/18 Q1015


Station Type Date Time Source
ESCF Decoded METAR 2022/06/28 08:20 UTC NOAA

Linkoping / Malmen, Sweden (ESCF) 58-24N 015-31E 117M
Jun 28, 2022 - 04:20 AM EDT / 2022.06.28 0820 UTC
Wind: from the W (260 degrees) at 12 MPH (10 KT):0
Visibility: greater than 7 mile(s):0
Temperature: 73 F (23 C)
Dew Point: 64 F (18 C)
Relative Humidity: 73%
Pressure (altimeter): 29.97 in. Hg (1015 hPa)
ob: ESCF 280820Z 26010KT CAVOK 23/18 Q1015
cycle: 8

Station Type Date Time Source
ESCF TAF UTC NOAA

Error!

Example: see airport list